createdAt,value
2019-02-09T00:01:28.764Z,6.55
2019-02-09T00:03:58.415Z,6.55
2019-02-09T00:06:28.052Z,6.52
2019-02-09T00:08:58.184Z,6.52
2019-02-09T00:11:27.828Z,6.46
2019-02-09T00:13:57.513Z,6.47
2019-02-09T00:16:27.588Z,6.47
2019-02-09T00:18:57.368Z,6.52
2019-02-09T00:21:27.337Z,6.50
2019-02-09T00:23:57.147Z,6.48
2019-02-09T00:26:26.774Z,6.48
2019-02-09T00:28:56.562Z,6.47
2019-02-09T00:31:26.314Z,6.45
2019-02-09T00:33:56.806Z,6.45
2019-02-09T00:36:26.634Z,6.42
2019-02-09T00:38:56.521Z,6.45
2019-02-09T00:41:26.037Z,6.44
2019-02-09T00:43:55.850Z,6.42
2019-02-09T00:46:25.505Z,6.42
2019-02-09T00:48:55.222Z,6.46
2019-02-09T00:51:25.032Z,6.44
2019-02-09T00:53:54.906Z,6.50
2019-02-09T00:56:24.688Z,6.50
2019-02-09T00:58:54.275Z,6.42
2019-02-09T01:01:24.101Z,6.37
2019-02-09T01:03:53.867Z,6.37
2019-02-09T01:06:24.639Z,6.37
2019-02-09T01:08:54.663Z,6.43
2019-02-09T01:11:24.414Z,6.40
2019-02-09T01:13:54.381Z,6.40
2019-02-09T01:16:24.282Z,6.39
2019-02-09T01:18:54.204Z,6.38
2019-02-09T01:21:23.978Z,6.43
2019-02-09T01:23:54.391Z,6.40
2019-02-09T01:26:24.222Z,6.41
2019-02-09T01:28:53.821Z,6.41
2019-02-09T01:31:23.842Z,6.44
2019-02-09T01:33:53.643Z,6.41
2019-02-09T01:36:23.341Z,6.37
2019-02-09T01:38:54.002Z,6.37
2019-02-09T01:41:24.019Z,6.41
2019-02-09T01:43:53.813Z,6.41
2019-02-09T01:46:23.646Z,6.41
2019-02-09T01:48:53.439Z,6.39
2019-02-09T01:51:23.020Z,6.39
2019-02-09T01:53:52.588Z,6.37
2019-02-09T01:56:22.342Z,6.38
2019-02-09T01:58:52.004Z,6.38
2019-02-09T02:01:21.640Z,6.39
2019-02-09T02:03:51.469Z,6.39
2019-02-09T02:06:21.274Z,6.40
2019-02-09T02:08:51.107Z,6.38
2019-02-09T02:11:20.889Z,6.38
2019-02-09T02:13:50.461Z,6.38
2019-02-09T02:16:20.156Z,6.36
2019-02-09T02:18:49.892Z,6.36
2019-02-09T02:21:19.530Z,6.34
2019-02-09T02:23:49.249Z,6.35
2019-02-09T02:26:20.075Z,6.41
2019-02-09T02:28:49.720Z,6.43
2019-02-09T02:31:19.332Z,6.43
2019-02-09T02:33:49.200Z,6.37
2019-02-09T02:36:19.117Z,6.37
2019-02-09T02:38:48.778Z,6.38
2019-02-09T02:41:18.641Z,6.38
2019-02-09T02:43:48.358Z,6.39
2019-02-09T02:46:17.966Z,6.39
2019-02-09T02:48:47.639Z,6.39
2019-02-09T02:51:17.427Z,6.42
2019-02-09T02:53:46.954Z,6.42
2019-02-09T02:56:16.603Z,6.44
2019-02-09T02:58:46.389Z,6.45
2019-02-09T03:01:15.947Z,6.43
2019-02-09T03:03:45.669Z,6.42
2019-02-09T03:06:15.445Z,6.44
2019-02-09T03:08:45.037Z,6.44
2019-02-09T03:11:14.784Z,6.43
2019-02-09T03:13:44.366Z,6.50
2019-02-09T03:16:14.130Z,6.46
2019-02-09T03:18:43.847Z,6.46
2019-02-09T03:21:13.376Z,6.47
2019-02-09T03:23:43.060Z,6.47
2019-02-09T03:26:13.185Z,6.46
2019-02-09T03:28:42.942Z,6.48
2019-02-09T03:31:12.522Z,6.46
2019-02-09T03:33:42.521Z,6.46
2019-02-09T03:36:12.260Z,6.46
2019-02-09T03:38:42.101Z,6.46
2019-02-09T03:41:12.172Z,6.44
2019-02-09T03:43:42.188Z,6.48
2019-02-09T03:46:11.965Z,6.48
2019-02-09T03:48:41.838Z,6.47
2019-02-09T03:51:11.458Z,6.44
2019-02-09T03:53:41.265Z,6.46
2019-02-09T03:56:11.426Z,6.45
2019-02-09T03:58:41.350Z,6.47
2019-02-09T04:01:11.202Z,6.51
2019-02-09T04:03:41.178Z,6.49
2019-02-09T04:06:11.101Z,6.46
2019-02-09T04:08:41.159Z,6.50
2019-02-09T04:11:11.245Z,6.45
2019-02-09T04:13:40.974Z,6.42
2019-02-09T04:16:10.683Z,6.44
2019-02-09T04:18:40.479Z,6.45
2019-02-09T04:21:10.287Z,6.44
2019-02-09T04:23:40.138Z,6.46
2019-02-09T04:26:10.096Z,6.45
2019-02-09T04:28:39.866Z,6.42
2019-02-09T04:31:09.914Z,6.42
2019-02-09T04:33:39.809Z,6.39
2019-02-09T04:36:09.519Z,6.45
2019-02-09T04:38:39.123Z,6.44
2019-02-09T04:41:09.010Z,6.40
2019-02-09T04:43:38.739Z,6.41
2019-02-09T04:46:08.835Z,6.40
2019-02-09T04:48:38.701Z,6.38
2019-02-09T04:51:08.339Z,6.39
2019-02-09T04:53:37.950Z,6.42
2019-02-09T04:56:07.654Z,6.42
2019-02-09T04:58:37.260Z,6.37
2019-02-09T05:01:13.791Z,6.37
2019-02-09T05:03:40.054Z,6.39
2019-02-09T05:06:09.880Z,6.33
2019-02-09T05:08:39.663Z,6.30
2019-02-09T05:11:09.635Z,6.29
2019-02-09T05:13:39.430Z,6.29
2019-02-09T05:16:09.128Z,6.28
2019-02-09T05:18:38.912Z,6.30
2019-02-09T05:21:08.445Z,6.22
2019-02-09T05:23:38.281Z,6.24
2019-02-09T05:26:07.939Z,6.24
2019-02-09T05:28:37.513Z,6.25
2019-02-09T05:31:07.175Z,6.25
2019-02-09T05:33:37.337Z,6.19
2019-02-09T05:36:07.005Z,6.19
2019-02-09T05:38:36.597Z,6.16
2019-02-09T05:41:06.462Z,6.16
2019-02-09T05:43:37.388Z,6.17
2019-02-09T05:46:07.237Z,6.17
2019-02-09T05:48:36.904Z,6.15
2019-02-09T05:51:06.496Z,6.23
2019-02-09T05:53:36.155Z,6.17
2019-02-09T05:56:06.104Z,6.17
2019-02-09T05:58:35.701Z,6.17
2019-02-09T06:01:05.594Z,6.17
2019-02-09T06:03:35.106Z,6.18
2019-02-09T06:06:04.899Z,6.14
2019-02-09T06:08:34.810Z,6.10
2019-02-09T06:11:04.514Z,6.10
2019-02-09T06:13:34.022Z,6.06
2019-02-09T06:16:03.900Z,6.06
2019-02-09T06:18:33.545Z,5.08
2019-02-09T06:21:03.320Z,5.08
2019-02-09T06:23:32.983Z,6.01
2019-02-09T06:26:03.731Z,6.01
2019-02-09T06:28:33.387Z,6.06
2019-02-09T06:31:03.431Z,6.02
2019-02-09T06:33:32.951Z,6.02
2019-02-09T06:36:02.938Z,5.99
2019-02-09T06:38:32.803Z,6.03
2019-02-09T06:41:02.427Z,6.09
2019-02-09T06:43:32.237Z,6.11
2019-02-09T06:46:02.004Z,6.12
2019-02-09T06:48:32.068Z,6.09
2019-02-09T06:51:03.942Z,6.09
2019-02-09T06:53:33.957Z,6.13
2019-02-09T06:56:03.813Z,6.10
2019-02-09T06:58:33.568Z,6.09
2019-02-09T07:01:03.438Z,6.15
2019-02-09T07:03:33.125Z,6.12
2019-02-09T07:06:02.809Z,6.12
2019-02-09T07:08:32.620Z,6.14
2019-02-09T07:11:02.390Z,6.13
2019-02-09T07:13:32.041Z,6.14
2019-02-09T07:16:01.887Z,6.10
2019-02-09T07:18:31.463Z,6.10
2019-02-09T07:21:01.215Z,6.14
2019-02-09T07:23:31.033Z,6.14
2019-02-09T07:26:00.645Z,6.12
2019-02-09T07:28:33.428Z,6.13
2019-02-09T07:31:03.367Z,6.13
2019-02-09T07:33:33.094Z,6.16
2019-02-09T07:36:02.830Z,6.16
2019-02-09T07:38:32.503Z,6.16
2019-02-09T07:41:02.189Z,6.21
2019-02-09T07:43:31.996Z,6.19
2019-02-09T07:46:01.666Z,6.22
2019-02-09T07:48:31.432Z,6.18
2019-02-09T07:51:01.468Z,6.18
2019-02-09T07:53:31.268Z,6.16
2019-02-09T07:56:00.903Z,6.18
2019-02-09T07:58:30.681Z,6.19
2019-02-09T08:01:00.293Z,6.24
2019-02-09T08:03:30.065Z,6.25
2019-02-09T08:06:00.221Z,6.25
2019-02-09T08:08:29.750Z,6.23
2019-02-09T08:10:59.220Z,6.23
2019-02-09T08:13:28.911Z,6.25
2019-02-09T08:15:58.604Z,6.27
2019-02-09T08:18:28.191Z,6.27
2019-02-09T08:20:57.930Z,6.31
2019-02-09T08:23:27.921Z,6.29
2019-02-09T08:25:57.724Z,6.31
2019-02-09T08:28:27.443Z,6.31
2019-02-09T08:30:57.158Z,6.35
2019-02-09T08:33:26.859Z,6.36
2019-02-09T08:35:56.656Z,6.31
2019-02-09T08:38:26.332Z,6.33
2019-02-09T08:40:56.247Z,5.42
2019-02-09T08:43:25.906Z,6.30
2019-02-09T08:45:55.585Z,6.32
2019-02-09T08:48:25.260Z,6.33
2019-02-09T08:51:01.632Z,6.41
2019-02-09T08:53:31.372Z,6.41
2019-02-09T08:56:01.125Z,6.46
2019-02-09T08:58:30.916Z,6.46
2019-02-09T09:01:00.705Z,6.51
2019-02-09T09:03:30.430Z,6.57
2019-02-09T09:06:00.300Z,6.53
2019-02-09T09:08:29.933Z,6.49
2019-02-09T09:11:01.378Z,6.49
2019-02-09T09:13:31.385Z,6.53
2019-02-09T09:16:02.457Z,6.58
2019-02-09T09:18:32.385Z,6.62
2019-02-09T09:21:03.569Z,6.64
2019-02-09T09:23:33.425Z,6.56
2019-02-09T09:26:03.073Z,6.57
2019-02-09T09:28:33.124Z,6.61
2019-02-09T09:31:02.939Z,6.61
2019-02-09T09:33:32.883Z,6.65
2019-02-09T09:36:03.138Z,6.65
2019-02-09T09:38:33.135Z,6.63
2019-02-09T09:41:02.836Z,6.64
2019-02-09T09:43:34.145Z,6.60
2019-02-09T09:46:04.107Z,6.60
2019-02-09T09:48:33.727Z,6.61
2019-02-09T09:51:03.625Z,6.63
2019-02-09T09:53:33.578Z,6.79
2019-02-09T09:56:03.181Z,6.83
2019-02-09T09:58:32.910Z,6.83
2019-02-09T10:01:02.717Z,6.87
2019-02-09T10:03:32.753Z,6.98
2019-02-09T10:06:11.278Z,6.89
2019-02-09T10:08:42.914Z,6.82
2019-02-09T10:11:15.440Z,6.80
2019-02-09T10:13:46.043Z,6.85
2019-02-09T10:16:16.257Z,6.95
2019-02-09T10:18:46.044Z,6.95
2019-02-09T10:21:15.809Z,6.96
2019-02-09T10:23:45.582Z,6.89
2019-02-09T10:26:15.232Z,6.84
2019-02-09T10:28:44.885Z,6.82
2019-02-09T10:31:14.782Z,6.77
2019-02-09T10:33:44.450Z,6.77
2019-02-09T10:36:14.269Z,6.77
2019-02-09T10:38:44.111Z,6.79
2019-02-09T10:41:13.795Z,6.86
2019-02-09T10:43:45.961Z,6.96
2019-02-09T10:46:16.475Z,7.02
2019-02-09T10:48:46.091Z,7.05
2019-02-09T10:51:15.979Z,7.08
2019-02-09T10:53:45.674Z,7.02
2019-02-09T10:56:15.416Z,6.97
2019-02-09T10:58:45.215Z,6.92
2019-02-09T11:01:17.869Z,6.94
2019-02-09T11:03:47.823Z,7.01
2019-02-09T11:06:17.854Z,6.27
2019-02-09T11:08:47.537Z,6.27
2019-02-09T11:11:17.499Z,6.94
2019-02-09T11:13:47.238Z,6.93
2019-02-09T11:16:16.971Z,7.06
2019-02-09T11:18:46.884Z,7.05
2019-02-09T11:21:16.719Z,7.03
2019-02-09T11:23:46.366Z,7.08
2019-02-09T11:26:16.036Z,7.06
2019-02-09T11:28:45.803Z,7.06
2019-02-09T11:31:15.640Z,7.06
2019-02-09T11:33:45.723Z,7.06
2019-02-09T11:36:15.645Z,7.02
2019-02-09T11:38:45.512Z,6.92
2019-02-09T11:41:15.292Z,6.87
2019-02-09T11:43:45.264Z,6.90
2019-02-09T11:46:15.087Z,6.94
2019-02-09T11:48:44.753Z,7.01
2019-02-09T11:51:14.708Z,7.14
2019-02-09T11:53:44.500Z,7.16
2019-02-09T11:56:14.225Z,7.12
2019-02-09T11:58:43.954Z,7.02
2019-02-09T12:01:13.522Z,6.93
2019-02-09T12:03:43.125Z,6.93
2019-02-09T12:06:12.972Z,7.00
2019-02-09T12:08:42.566Z,7.00
2019-02-09T12:11:12.428Z,7.12
2019-02-09T12:13:42.391Z,7.25
2019-02-09T12:16:12.305Z,7.33
2019-02-09T12:18:42.250Z,7.34
2019-02-09T12:21:12.254Z,7.33
2019-02-09T12:23:42.065Z,7.27
2019-02-09T12:26:12.191Z,7.20
2019-02-09T12:28:42.230Z,7.15
2019-02-09T12:31:12.150Z,7.15
2019-02-09T12:33:42.029Z,7.08
2019-02-09T12:36:12.010Z,7.12
2019-02-09T12:38:41.629Z,7.12
2019-02-09T12:41:11.605Z,7.10
2019-02-09T12:43:41.609Z,7.10
2019-02-09T12:46:11.361Z,7.21
2019-02-09T12:48:41.181Z,7.21
2019-02-09T12:51:11.206Z,7.24
2019-02-09T12:53:41.006Z,7.26
2019-02-09T12:56:11.113Z,7.27
2019-02-09T12:58:40.882Z,7.33
2019-02-09T13:01:11.131Z,7.43
2019-02-09T13:03:41.436Z,7.44
2019-02-09T13:06:11.347Z,7.40
2019-02-09T13:08:40.995Z,7.33
2019-02-09T13:11:11.077Z,7.29
2019-02-09T13:13:41.141Z,7.39
2019-02-09T13:16:11.038Z,7.44
2019-02-09T13:18:41.233Z,7.44
2019-02-09T13:21:11.098Z,7.35
2019-02-09T13:23:41.176Z,7.39
2019-02-09T13:26:11.275Z,7.41
2019-02-09T13:28:41.248Z,7.38
2019-02-09T13:31:11.092Z,7.28
2019-02-09T13:33:41.177Z,7.28
2019-02-09T13:36:10.930Z,7.30
2019-02-09T13:38:41.055Z,7.37
2019-02-09T13:41:11.078Z,7.37
2019-02-09T13:43:41.133Z,7.26
2019-02-09T13:46:11.292Z,6.21
2019-02-09T13:48:41.364Z,7.12
2019-02-09T13:51:11.496Z,7.14
2019-02-09T13:53:41.362Z,7.09
2019-02-09T13:56:11.394Z,7.05
2019-02-09T13:58:41.373Z,7.04
2019-02-09T14:01:11.546Z,6.94
2019-02-09T14:03:46.697Z,6.89
2019-02-09T14:06:13.046Z,6.87
2019-02-09T14:08:42.670Z,6.95
2019-02-09T14:11:12.507Z,6.90
2019-02-09T14:13:42.486Z,6.90
2019-02-09T14:16:12.411Z,6.90
2019-02-09T14:18:42.092Z,6.90
2019-02-09T14:21:13.256Z,6.87
2019-02-09T14:23:42.949Z,6.89
2019-02-09T14:26:12.702Z,6.93
2019-02-09T14:28:45.395Z,6.94
2019-02-09T14:31:15.035Z,6.88
2019-02-09T14:33:44.668Z,6.86
2019-02-09T14:36:14.676Z,6.88
2019-02-09T14:38:44.394Z,6.80
2019-02-09T14:41:14.086Z,6.72
2019-02-09T14:43:44.117Z,6.77
2019-02-09T14:46:13.777Z,6.74
2019-02-09T14:48:43.477Z,6.67
2019-02-09T14:51:13.271Z,6.79
2019-02-09T14:53:42.890Z,6.81
2019-02-09T14:56:12.653Z,6.79
2019-02-09T14:58:42.773Z,6.71
2019-02-09T15:01:12.566Z,6.69
2019-02-09T15:03:42.481Z,6.64
2019-02-09T15:06:12.327Z,6.60
2019-02-09T15:08:42.223Z,6.62
2019-02-09T15:11:12.039Z,6.52
2019-02-09T15:13:42.002Z,6.46
2019-02-09T15:16:31.024Z,6.49
2019-02-09T15:19:00.851Z,6.42
2019-02-09T15:21:30.502Z,6.39
2019-02-09T15:24:00.210Z,6.38
2019-02-09T15:26:30.123Z,6.41
2019-02-09T15:29:00.015Z,6.34
2019-02-09T15:31:29.679Z,6.24
2019-02-09T15:33:59.480Z,6.17
2019-02-09T15:36:29.202Z,6.09
2019-02-09T15:38:59.099Z,6.14
2019-02-09T15:41:28.966Z,6.15
2019-02-09T15:43:58.729Z,6.13
2019-02-09T15:46:28.673Z,6.13
2019-02-09T15:48:58.651Z,6.13
2019-02-09T15:51:28.173Z,6.13
2019-02-09T15:53:57.848Z,6.15
2019-02-09T15:56:27.696Z,6.13
2019-02-09T15:58:57.365Z,6.14
2019-02-09T16:01:27.192Z,6.16
2019-02-09T16:03:57.204Z,6.16
2019-02-09T16:06:26.989Z,6.07
2019-02-09T16:08:56.729Z,6.07
2019-02-09T16:11:26.855Z,6.10
2019-02-09T16:13:56.517Z,6.14
2019-02-09T16:16:26.168Z,6.14
2019-02-09T16:18:56.361Z,6.14
2019-02-09T16:21:26.086Z,5.15
2019-02-09T16:23:55.754Z,6.13
2019-02-09T16:26:25.795Z,6.13
2019-02-09T16:28:55.759Z,5.91
2019-02-09T16:31:25.653Z,5.85
2019-02-09T16:33:55.595Z,5.85
2019-02-09T16:36:25.437Z,5.93
2019-02-09T16:38:55.179Z,5.87
2019-02-09T16:41:25.207Z,5.87
2019-02-09T16:43:54.908Z,5.86
2019-02-09T16:46:24.888Z,5.73
2019-02-09T16:48:54.530Z,5.67
2019-02-09T16:51:24.739Z,5.52
2019-02-09T16:53:54.432Z,5.54
2019-02-09T16:56:24.247Z,5.53
2019-02-09T16:58:53.867Z,5.46
2019-02-09T17:01:23.793Z,5.43
2019-02-09T17:03:53.609Z,5.46
2019-02-09T17:06:23.436Z,5.46
2019-02-09T17:08:53.183Z,5.44
2019-02-09T17:11:23.060Z,5.39
2019-02-09T17:13:52.604Z,5.45
2019-02-09T17:16:22.665Z,5.50
2019-02-09T17:18:52.514Z,4.49
2019-02-09T17:21:22.254Z,4.49
2019-02-09T17:23:51.875Z,5.36
2019-02-09T17:26:21.844Z,5.33
2019-02-09T17:28:51.538Z,5.35
2019-02-09T17:31:21.439Z,5.39
2019-02-09T17:33:51.300Z,5.39
2019-02-09T17:36:21.157Z,5.28
2019-02-09T17:38:51.010Z,5.28
2019-02-09T17:41:20.973Z,5.26
2019-02-09T17:43:50.600Z,5.22
2019-02-09T17:46:20.292Z,5.24
2019-02-09T17:48:50.144Z,5.23
2019-02-09T17:51:20.003Z,5.33
2019-02-09T17:53:49.736Z,5.38
2019-02-09T17:56:19.457Z,5.34
2019-02-09T17:58:49.049Z,5.34
2019-02-09T18:01:18.661Z,5.43
2019-02-09T18:03:48.534Z,5.45
2019-02-09T18:06:18.129Z,5.40
2019-02-09T18:08:47.911Z,5.37
2019-02-09T18:11:17.669Z,5.37
2019-02-09T18:13:47.260Z,5.38
2019-02-09T18:16:17.140Z,5.38
2019-02-09T18:18:46.762Z,5.42
2019-02-09T18:21:16.505Z,5.40
2019-02-09T18:23:46.403Z,5.40
2019-02-09T18:26:15.999Z,5.40
2019-02-09T18:28:45.702Z,5.44
2019-02-09T18:31:15.589Z,5.47
2019-02-09T18:33:45.214Z,5.48
2019-02-09T18:36:14.963Z,5.48
2019-02-09T18:38:46.603Z,5.53
2019-02-09T18:41:16.270Z,5.54
2019-02-09T18:43:45.930Z,5.54
2019-02-09T18:46:15.848Z,5.54
2019-02-09T18:48:45.697Z,5.66
2019-02-09T18:51:15.338Z,5.68
2019-02-09T18:53:45.313Z,5.75
2019-02-09T18:56:15.352Z,5.77
2019-02-09T18:58:45.032Z,5.77
2019-02-09T19:01:14.875Z,5.81
2019-02-09T19:03:44.401Z,5.83
2019-02-09T19:06:13.979Z,5.83
2019-02-09T19:08:43.740Z,5.83
2019-02-09T19:11:13.576Z,5.86
2019-02-09T19:13:43.273Z,5.92
2019-02-09T19:16:13.084Z,5.94
2019-02-09T19:18:42.780Z,6.02
2019-02-09T19:21:15.190Z,6.07
2019-02-09T19:23:44.896Z,6.07
2019-02-09T19:26:14.869Z,6.11
2019-02-09T19:28:44.828Z,6.11
2019-02-09T19:31:14.589Z,6.14
2019-02-09T19:33:44.221Z,6.10
2019-02-09T19:36:14.331Z,6.11
2019-02-09T19:38:43.992Z,6.12
2019-02-09T19:41:14.033Z,6.12
2019-02-09T19:43:43.739Z,6.08
2019-02-09T19:46:13.422Z,6.08
2019-02-09T19:48:43.090Z,6.11
2019-02-09T19:51:12.894Z,6.17
2019-02-09T19:53:42.616Z,6.17
2019-02-09T19:56:12.702Z,6.07
2019-02-09T19:58:42.546Z,6.07
2019-02-09T20:01:12.546Z,6.11
2019-02-09T20:03:42.567Z,6.16
2019-02-09T20:06:12.431Z,6.12
2019-02-09T20:08:42.436Z,6.12
2019-02-09T20:11:12.339Z,6.14
2019-02-09T20:13:44.402Z,6.14
2019-02-09T20:16:15.710Z,6.14
2019-02-09T20:18:45.638Z,6.16
2019-02-09T20:21:15.293Z,6.10
2019-02-09T20:23:45.081Z,6.07
2019-02-09T20:26:14.748Z,6.05
2019-02-09T20:28:44.964Z,6.09
2019-02-09T20:31:14.755Z,6.17
2019-02-09T20:33:44.383Z,6.19
2019-02-09T20:36:14.431Z,6.18
2019-02-09T20:38:44.214Z,6.20
2019-02-09T20:41:14.041Z,6.20
2019-02-09T20:43:44.103Z,6.23
2019-02-09T20:46:13.843Z,6.26
2019-02-09T20:48:43.503Z,6.27
2019-02-09T20:51:13.363Z,6.27
2019-02-09T20:53:43.156Z,6.25
2019-02-09T20:56:12.988Z,6.24
2019-02-09T20:58:42.904Z,6.30
2019-02-09T21:01:12.776Z,5.36
2019-02-09T21:03:42.682Z,5.29
2019-02-09T21:06:12.552Z,6.23
2019-02-09T21:08:42.391Z,6.13
2019-02-09T21:11:12.442Z,6.13
2019-02-09T21:13:42.483Z,6.13
2019-02-09T21:16:12.438Z,6.19
2019-02-09T21:18:42.223Z,6.17
2019-02-09T21:21:12.322Z,6.14
2019-02-09T21:23:42.151Z,6.22
2019-02-09T21:26:12.020Z,6.22
2019-02-09T21:28:42.212Z,6.22
2019-02-09T21:31:12.308Z,6.23
2019-02-09T21:33:42.185Z,6.21
2019-02-09T21:36:12.366Z,6.21
2019-02-09T21:38:42.255Z,6.21
2019-02-09T21:41:12.308Z,6.17
2019-02-09T21:43:42.625Z,6.16
2019-02-09T21:46:12.807Z,6.16
2019-02-09T21:48:42.614Z,6.18
2019-02-09T21:51:12.507Z,5.17
2019-02-09T21:53:42.839Z,6.14
2019-02-09T21:56:12.569Z,6.14
2019-02-09T21:58:42.533Z,6.11
2019-02-09T22:01:12.662Z,6.07
2019-02-09T22:03:42.873Z,6.06
2019-02-09T22:06:12.734Z,5.13
2019-02-09T22:08:43.003Z,5.13
2019-02-09T22:11:12.784Z,6.08
2019-02-09T22:13:42.542Z,6.09
2019-02-09T22:16:12.768Z,6.09
2019-02-09T22:18:42.971Z,6.04
2019-02-09T22:21:12.961Z,6.11
2019-02-09T22:23:43.148Z,6.15
2019-02-09T22:26:13.516Z,6.14
2019-02-09T22:28:43.324Z,6.14
2019-02-09T22:31:21.531Z,6.09
2019-02-09T22:33:44.890Z,6.07
2019-02-09T22:36:14.746Z,6.09
2019-02-09T22:38:44.419Z,6.11
2019-02-09T22:41:14.163Z,6.13
2019-02-09T22:43:43.921Z,6.13
2019-02-09T22:46:13.657Z,6.14
2019-02-09T22:48:43.370Z,6.11
2019-02-09T22:51:13.202Z,6.11
2019-02-09T22:53:42.857Z,6.21
2019-02-09T22:56:12.871Z,6.21
2019-02-09T22:58:42.716Z,5.35
2019-02-09T23:01:26.926Z,6.24
2019-02-09T23:04:37.408Z,6.25
2019-02-09T23:07:15.389Z,6.25
2019-02-09T23:09:45.167Z,6.27
2019-02-09T23:12:14.812Z,6.29
2019-02-09T23:14:44.751Z,6.29
2019-02-09T23:17:14.587Z,6.31
2019-02-09T23:19:44.545Z,6.30
2019-02-09T23:22:14.151Z,6.30
2019-02-09T23:24:44.037Z,6.29
2019-02-09T23:27:13.808Z,6.33
2019-02-09T23:29:43.402Z,6.36
2019-02-09T23:32:13.225Z,6.31
2019-02-09T23:34:43.074Z,6.31
2019-02-09T23:37:12.728Z,6.38
2019-02-09T23:39:42.676Z,6.38
2019-02-09T23:42:12.654Z,6.42
2019-02-09T23:44:42.448Z,6.47
2019-02-09T23:47:12.268Z,6.47
2019-02-09T23:49:42.379Z,6.43
2019-02-09T23:52:12.418Z,6.49
2019-02-09T23:54:42.513Z,6.57
2019-02-09T23:57:12.670Z,6.57
2019-02-09T23:59:42.556Z,6.58
